createdAt,value
2019-02-06T00:03:44.583Z,8.60
2019-02-06T00:06:30.465Z,8.23
2019-02-06T00:09:16.998Z,7.80
2019-02-06T00:12:03.075Z,8.27
2019-02-06T00:14:49.071Z,7.83
2019-02-06T00:17:35.209Z,8.10
2019-02-06T00:20:21.223Z,8.07
2019-02-06T00:23:07.309Z,7.67
2019-02-06T00:25:53.530Z,8.60
2019-02-06T00:28:39.509Z,9.37
2019-02-06T00:31:25.507Z,9.33
2019-02-06T00:34:11.385Z,9.07
2019-02-06T00:36:57.284Z,10.33
2019-02-06T00:39:43.171Z,9.53
2019-02-06T00:42:29.294Z,9.10
2019-02-06T00:45:15.286Z,9.13
2019-02-06T00:48:01.228Z,10.23
2019-02-06T00:50:47.106Z,11.37
2019-02-06T00:53:33.338Z,10.47
2019-02-06T00:56:21.124Z,10.50
2019-02-06T00:59:07.016Z,11.37
2019-02-06T01:01:52.899Z,9.87
2019-02-06T01:04:38.804Z,10.80
2019-02-06T01:07:24.690Z,9.97
2019-02-06T01:10:33.013Z,9.80
2019-02-06T01:13:18.897Z,11.53
2019-02-06T01:16:04.787Z,12.60
2019-02-06T01:18:50.900Z,10.13
2019-02-06T01:21:30.239Z,10.37
2019-02-06T01:24:16.114Z,11.10
2019-02-06T01:27:02.010Z,11.17
2019-02-06T01:29:48.318Z,11.60
2019-02-06T01:32:34.207Z,12.13
2019-02-06T01:35:20.090Z,11.60
2019-02-06T01:38:05.995Z,11.83
2019-02-06T01:40:51.869Z,11.37
2019-02-06T01:43:38.078Z,10.20
2019-02-06T01:46:23.982Z,11.20
2019-02-06T01:49:09.871Z,10.63
2019-02-06T01:51:55.773Z,9.93
2019-02-06T01:54:41.649Z,10.90
2019-02-06T01:57:27.942Z,11.77
2019-02-06T02:00:33.702Z,12.00
2019-02-06T02:03:19.615Z,10.80
2019-02-06T02:06:05.838Z,12.33
2019-02-06T02:11:52.199Z,11.83
2019-02-06T02:14:38.114Z,12.10
2019-02-06T02:17:23.996Z,11.97
2019-02-06T02:20:29.798Z,11.53
2019-02-06T02:23:09.396Z,11.93
2019-02-06T02:25:55.285Z,10.73
2019-02-06T02:28:41.218Z,12.93
2019-02-06T02:31:27.208Z,11.50
2019-02-06T02:34:13.516Z,12.60
2019-02-06T02:36:59.631Z,11.93
2019-02-06T02:39:45.544Z,12.73
2019-02-06T02:42:31.428Z,11.43
2019-02-06T02:45:18.233Z,12.70
2019-02-06T02:48:06.048Z,11.97
2019-02-06T02:50:51.949Z,11.63
2019-02-06T02:53:37.852Z,12.70
2019-02-06T02:56:23.916Z,11.70
2019-02-06T02:59:09.923Z,13.33
2019-02-06T03:05:41.201Z,11.03
2019-02-06T03:08:27.359Z,12.40
2019-02-06T03:11:13.492Z,12.07
2019-02-06T03:13:59.375Z,11.77
2019-02-06T03:16:45.905Z,11.67
2019-02-06T03:19:31.797Z,12.33
2019-02-06T03:22:17.736Z,12.00
2019-02-06T03:25:25.491Z,11.07
2019-02-06T03:28:11.411Z,11.63
2019-02-06T03:30:57.326Z,11.37
2019-02-06T03:33:43.331Z,11.43
2019-02-06T03:36:39.954Z,11.53
2019-02-06T03:39:17.225Z,12.40
2019-02-06T03:42:03.316Z,12.27
2019-02-06T03:44:49.478Z,11.77
2019-02-06T03:47:35.359Z,12.03
2019-02-06T03:50:21.482Z,10.53
2019-02-06T03:53:07.383Z,12.07
2019-02-06T03:55:53.846Z,11.00
2019-02-06T03:58:39.796Z,11.80
2019-02-06T04:01:19.919Z,11.07
2019-02-06T04:04:05.823Z,11.70
2019-02-06T04:06:58.214Z,11.77
2019-02-06T04:09:39.529Z,11.57
2019-02-06T04:12:25.644Z,11.17
2019-02-06T04:15:11.655Z,11.83
2019-02-06T04:17:57.780Z,11.70
2019-02-06T04:20:43.924Z,12.10
2019-02-06T04:23:29.829Z,11.07
2019-02-06T04:26:15.811Z,11.93
2019-02-06T04:29:01.704Z,11.77
2019-02-06T04:31:47.607Z,11.67
2019-02-06T04:34:33.488Z,10.90
2019-02-06T04:37:19.789Z,9.57
2019-02-06T04:40:25.795Z,11.13
2019-02-06T04:43:11.684Z,10.80
2019-02-06T04:45:57.592Z,12.33
2019-02-06T04:48:43.487Z,11.37
2019-02-06T04:51:29.425Z,10.73
2019-02-06T04:54:15.302Z,12.67
2019-02-06T04:57:01.223Z,11.90
2019-02-06T04:59:47.164Z,11.43
2019-02-06T05:02:26.776Z,11.97
2019-02-06T05:05:12.780Z,12.33
2019-02-06T05:07:58.659Z,11.07
2019-02-06T05:10:44.752Z,11.97
2019-02-06T05:13:30.859Z,12.57
2019-02-06T05:16:16.759Z,11.10
2019-02-06T05:19:02.666Z,12.47
2019-02-06T05:21:48.888Z,11.87
2019-02-06T05:24:35.089Z,11.70
2019-02-06T05:27:21.202Z,12.07
2019-02-06T05:30:28.980Z,11.90
2019-02-06T05:33:15.124Z,10.20
2019-02-06T05:36:01.016Z,11.43
2019-02-06T05:38:46.920Z,11.60
2019-02-06T05:41:33.147Z,11.83
2019-02-06T05:44:19.044Z,11.63
2019-02-06T05:47:04.964Z,13.13
2019-02-06T05:49:50.947Z,11.73
2019-02-06T05:52:37.063Z,11.37
2019-02-06T05:55:23.207Z,12.43
2019-02-06T05:58:09.091Z,12.10
2019-02-06T06:00:54.987Z,10.93
2019-02-06T06:03:34.739Z,11.30
2019-02-06T06:06:20.684Z,13.33
2019-02-06T06:09:06.645Z,14.70
2019-02-06T06:11:52.844Z,11.47
2019-02-06T06:14:38.768Z,12.97
2019-02-06T06:17:24.659Z,11.73
2019-02-06T06:20:32.376Z,12.60
2019-02-06T06:23:18.332Z,11.63
2019-02-06T06:26:04.464Z,12.67
2019-02-06T06:28:50.392Z,11.77
2019-02-06T06:31:36.556Z,12.30
2019-02-06T06:34:22.768Z,11.60
2019-02-06T06:37:08.750Z,12.57
2019-02-06T06:39:54.756Z,12.23
2019-02-06T06:42:40.672Z,11.37
2019-02-06T06:45:26.576Z,11.47
2019-02-06T06:48:12.469Z,11.83
2019-02-06T06:50:58.478Z,11.93
2019-02-06T06:53:44.354Z,13.17
2019-02-06T06:56:30.262Z,12.03
2019-02-06T06:59:16.161Z,11.47
2019-02-06T07:02:02.291Z,12.33
2019-02-06T07:04:41.759Z,12.87
2019-02-06T07:07:27.913Z,12.57
2019-02-06T07:10:35.593Z,11.83
2019-02-06T07:13:21.478Z,11.67
2019-02-06T07:16:07.367Z,12.37
2019-02-06T07:18:53.512Z,13.43
2019-02-06T07:21:39.623Z,12.43
2019-02-06T07:24:25.855Z,11.53
2019-02-06T07:27:11.731Z,11.30
2019-02-06T07:29:57.650Z,13.37
2019-02-06T07:32:43.539Z,13.77
2019-02-06T07:35:29.668Z,13.93
2019-02-06T07:41:47.194Z,12.77
2019-02-06T07:47:01.931Z,14.33
2019-02-06T07:49:48.350Z,14.83
2019-02-06T07:52:34.251Z,16.43
2019-02-06T07:55:20.140Z,13.00
2019-02-06T07:58:06.045Z,12.80
2019-02-06T08:00:51.936Z,11.97
2019-02-06T08:03:38.229Z,12.07
2019-02-06T08:06:18.109Z,12.47
2019-02-06T08:09:05.012Z,12.37
2019-02-06T08:11:50.894Z,12.67
2019-02-06T08:14:36.820Z,11.93
2019-02-06T08:17:23.019Z,12.50
2019-02-06T08:20:30.712Z,12.87
2019-02-06T08:23:16.603Z,12.50
2019-02-06T08:26:02.602Z,12.10
2019-02-06T08:28:48.729Z,12.47
2019-02-06T08:31:34.629Z,12.23
2019-02-06T08:34:20.545Z,12.27
2019-02-06T08:37:06.461Z,11.00
2019-02-06T08:39:52.356Z,11.83
2019-02-06T08:42:38.324Z,11.50
2019-02-06T08:45:24.279Z,12.23
2019-02-06T08:48:10.195Z,12.03
2019-02-06T08:50:56.412Z,11.80
2019-02-06T08:53:42.307Z,11.53
2019-02-06T08:56:28.204Z,10.70
2019-02-06T08:59:14.348Z,12.17
2019-02-06T09:02:00.281Z,11.60
2019-02-06T09:04:55.463Z,12.43
2019-02-06T09:07:27.943Z,12.13
2019-02-06T09:10:35.638Z,11.00
2019-02-06T09:13:21.529Z,11.83
2019-02-06T09:16:07.636Z,11.70
2019-02-06T09:18:53.778Z,11.70
2019-02-06T09:21:39.702Z,12.00
2019-02-06T09:24:25.602Z,13.53
2019-02-06T09:27:11.513Z,11.90
2019-02-06T09:29:57.816Z,11.97
2019-02-06T09:32:43.791Z,12.30
2019-02-06T09:35:29.830Z,11.60
2019-02-06T09:38:15.698Z,12.00
2019-02-06T09:41:01.607Z,13.13
2019-02-06T09:43:47.804Z,12.50
2019-02-06T09:46:34.034Z,11.80
2019-02-06T09:49:20.156Z,12.33
2019-02-06T09:52:06.066Z,11.73
2019-02-06T09:54:51.959Z,12.33
2019-02-06T09:57:38.276Z,12.13
2019-02-06T10:00:25.258Z,12.50
2019-02-06T10:03:11.231Z,12.50
2019-02-06T10:05:57.155Z,12.37
2019-02-06T10:08:36.821Z,12.27
2019-02-06T10:11:23.014Z,11.43
2019-02-06T10:14:08.916Z,12.90
2019-02-06T10:16:55.030Z,12.17
2019-02-06T10:19:42.518Z,11.80
2019-02-06T10:22:28.771Z,12.10
2019-02-06T10:25:15.055Z,12.60
2019-02-06T10:28:00.975Z,12.50
2019-02-06T10:30:47.387Z,12.83
2019-02-06T10:33:33.277Z,12.20
2019-02-06T10:36:19.243Z,13.00
2019-02-06T10:39:06.139Z,12.67
2019-02-06T10:41:52.044Z,11.70
2019-02-06T10:44:37.959Z,12.43
2019-02-06T10:47:23.946Z,13.27
2019-02-06T10:50:29.722Z,13.63
2019-02-06T10:53:15.646Z,12.13
2019-02-06T10:56:01.752Z,13.80
2019-02-06T10:58:47.668Z,12.60
2019-02-06T11:01:33.840Z,14.30
2019-02-06T11:04:21.684Z,13.73
2019-02-06T11:07:08.228Z,14.37
2019-02-06T11:09:49.252Z,12.27
2019-02-06T11:12:35.153Z,13.10
2019-02-06T11:15:21.493Z,13.33
2019-02-06T11:18:09.292Z,13.80
2019-02-06T11:20:55.463Z,13.93
2019-02-06T11:23:41.350Z,13.57
2019-02-06T11:26:27.259Z,13.27
2019-02-06T11:29:13.159Z,14.80
2019-02-06T11:31:59.775Z,15.23
2019-02-06T11:34:45.682Z,15.20
2019-02-06T11:37:31.646Z,14.83
2019-02-06T11:40:37.438Z,13.90
2019-02-06T11:43:23.334Z,14.37
2019-02-06T11:46:09.467Z,15.80
2019-02-06T11:48:55.366Z,15.37
2019-02-06T11:51:41.277Z,15.60
2019-02-06T11:54:27.231Z,15.10
2019-02-06T11:57:13.518Z,15.00
2019-02-06T11:59:59.463Z,15.80
2019-02-06T12:02:45.367Z,15.07
2019-02-06T12:05:31.508Z,14.63
2019-02-06T12:08:17.638Z,16.07
2019-02-06T12:10:57.892Z,15.00
2019-02-06T12:13:43.789Z,14.70
2019-02-06T12:16:30.053Z,15.63
2019-02-06T12:19:16.336Z,15.90
2019-02-06T12:22:02.366Z,17.17
2019-02-06T12:24:48.345Z,15.87
2019-02-06T12:27:34.486Z,16.80
2019-02-06T12:30:40.306Z,16.50
2019-02-06T12:33:26.270Z,16.60
2019-02-06T12:36:12.164Z,16.27
2019-02-06T12:38:58.096Z,16.53
2019-02-06T12:41:43.996Z,17.50
2019-02-06T12:44:30.177Z,17.57
2019-02-06T12:47:16.278Z,17.67
2019-02-06T12:50:23.971Z,17.20
2019-02-06T12:53:09.867Z,17.73
2019-02-06T12:55:55.786Z,17.50
2019-02-06T12:58:41.678Z,17.33
2019-02-06T13:01:27.590Z,18.17
2019-02-06T13:04:13.480Z,17.63
2019-02-06T13:07:00.246Z,18.33
2019-02-06T13:09:47.628Z,18.63
2019-02-06T13:12:27.487Z,19.17
2019-02-06T13:15:35.277Z,19.60
2019-02-06T13:18:24.045Z,19.10
2019-02-06T13:21:09.271Z,20.10
2019-02-06T13:23:55.482Z,17.90
2019-02-06T13:26:44.138Z,18.80
2019-02-06T13:29:29.435Z,19.37
2019-02-06T13:32:15.324Z,19.00
2019-02-06T13:35:01.244Z,19.17
2019-02-06T13:37:47.235Z,19.27
2019-02-06T13:40:44.747Z,19.77
2019-02-06T13:43:21.494Z,18.20
2019-02-06T13:46:07.495Z,17.17
2019-02-06T13:48:53.383Z,17.63
2019-02-06T13:51:39.304Z,18.83
2019-02-06T13:54:25.187Z,18.83
2019-02-06T13:57:11.086Z,18.50
2019-02-06T13:59:56.987Z,17.87
2019-02-06T14:02:42.993Z,18.03
2019-02-06T14:05:50.676Z,17.90
2019-02-06T14:08:36.563Z,18.43
2019-02-06T14:11:22.568Z,18.47
2019-02-06T14:14:01.947Z,18.20
2019-02-06T14:16:48.231Z,18.00
2019-02-06T14:19:34.132Z,18.50
2019-02-06T14:22:20.039Z,19.10
2019-02-06T14:25:25.795Z,17.20
2019-02-06T14:28:31.672Z,18.60
2019-02-06T14:31:39.340Z,18.30
2019-02-06T14:34:45.124Z,17.03
2019-02-06T14:37:51.131Z,17.50
2019-02-06T14:41:07.962Z,19.20
2019-02-06T14:44:06.759Z,18.37
2019-02-06T14:47:12.525Z,16.47
2019-02-06T14:50:18.324Z,18.13
2019-02-06T14:53:26.288Z,17.20
2019-02-06T14:56:32.052Z,17.27
2019-02-06T14:59:37.930Z,16.93
2019-02-06T15:02:43.694Z,18.00
2019-02-06T15:05:49.684Z,18.13
2019-02-06T15:08:55.459Z,18.10
2019-02-06T15:12:01.246Z,17.97
2019-02-06T15:14:42.312Z,17.90
2019-02-06T15:17:48.771Z,17.90
2019-02-06T15:20:54.716Z,18.57
2019-02-06T15:24:00.892Z,16.60
2019-02-06T15:27:06.748Z,17.30
2019-02-06T15:30:14.649Z,17.33
2019-02-06T15:33:20.425Z,18.37
2019-02-06T15:36:28.228Z,18.47
2019-02-06T15:39:35.916Z,17.07
2019-02-06T15:42:43.454Z,18.03
2019-02-06T15:45:49.391Z,17.30
2019-02-06T15:48:55.528Z,17.43
2019-02-06T15:52:04.983Z,17.43
2019-02-06T15:55:11.167Z,17.60
2019-02-06T15:58:18.949Z,18.10
2019-02-06T16:01:26.633Z,17.53
2019-02-06T16:04:52.288Z,17.60
2019-02-06T16:07:58.082Z,17.83
2019-02-06T16:11:03.862Z,18.20
2019-02-06T16:14:11.604Z,18.00
2019-02-06T16:17:18.758Z,18.17
2019-02-06T16:20:26.467Z,18.57
2019-02-06T16:23:32.236Z,18.93
2019-02-06T16:26:40.600Z,18.17
2019-02-06T16:29:46.378Z,16.67
2019-02-06T16:32:54.060Z,18.93
2019-02-06T16:35:59.832Z,18.90
2019-02-06T16:39:07.545Z,21.63
2019-02-06T16:42:13.555Z,20.80
2019-02-06T16:45:19.365Z,18.50
2019-02-06T16:48:27.054Z,19.00
2019-02-06T16:51:33.088Z,18.93
2019-02-06T16:54:38.867Z,18.10
2019-02-06T16:57:44.651Z,17.73
2019-02-06T17:00:50.666Z,18.10
2019-02-06T17:03:56.683Z,17.77
2019-02-06T17:07:02.470Z,17.13
2019-02-06T17:10:10.227Z,17.33
2019-02-06T17:13:16.014Z,17.63
2019-02-06T17:16:22.155Z,16.40
2019-02-06T17:19:29.667Z,17.03
2019-02-06T17:22:37.369Z,17.00
2019-02-06T17:25:43.170Z,17.73
2019-02-06T17:28:49.162Z,16.80
2019-02-06T17:31:54.952Z,16.43
2019-02-06T17:35:02.607Z,16.87
2019-02-06T17:38:10.327Z,15.83
2019-02-06T17:41:16.350Z,17.60
2019-02-06T17:44:24.118Z,16.70
2019-02-06T17:47:29.889Z,16.87
2019-02-06T17:50:35.701Z,16.80
2019-02-06T17:53:41.471Z,17.13
2019-02-06T17:56:27.371Z,16.13
2019-02-06T17:59:13.263Z,16.23
2019-02-06T18:01:59.416Z,17.27
2019-02-06T18:04:45.408Z,17.40
2019-02-06T18:07:31.447Z,16.63
2019-02-06T18:10:17.735Z,16.37
2019-02-06T18:13:04.351Z,17.40
2019-02-06T18:15:50.245Z,17.13
2019-02-06T18:18:36.454Z,16.77
2019-02-06T18:21:16.155Z,16.80
2019-02-06T18:24:02.254Z,16.63
2019-02-06T18:26:48.511Z,17.27
2019-02-06T18:29:35.498Z,16.53
2019-02-06T18:32:23.204Z,17.73
2019-02-06T18:35:09.667Z,17.47
2019-02-06T18:37:55.576Z,16.97
2019-02-06T18:40:42.498Z,17.33
2019-02-06T18:43:28.393Z,16.80
2019-02-06T18:46:14.395Z,17.00
2019-02-06T18:49:00.392Z,16.33
2019-02-06T18:51:46.323Z,18.03
2019-02-06T18:54:32.227Z,17.43
2019-02-06T18:57:18.457Z,17.77
2019-02-06T19:00:26.406Z,15.33
2019-02-06T19:03:32.286Z,16.70
2019-02-06T19:06:19.108Z,17.27
2019-02-06T19:09:29.014Z,17.00
2019-02-06T19:12:16.207Z,17.57
2019-02-06T19:15:24.084Z,17.57
2019-02-06T19:18:10.077Z,17.60
2019-02-06T19:20:56.079Z,17.93
2019-02-06T19:23:35.719Z,18.50
2019-02-06T19:26:21.995Z,16.90
2019-02-06T19:29:07.896Z,17.23
2019-02-06T19:31:54.054Z,18.67
2019-02-06T19:34:39.951Z,16.40
2019-02-06T19:37:25.862Z,18.30
2019-02-06T19:40:33.656Z,17.13
2019-02-06T19:43:19.759Z,15.20
2019-02-06T19:46:05.754Z,17.93
2019-02-06T19:48:51.875Z,17.33
2019-02-06T19:51:37.775Z,18.23
2019-02-06T19:54:23.774Z,17.60
2019-02-06T19:57:09.900Z,19.77
2019-02-06T19:59:57.687Z,17.03
2019-02-06T20:02:43.589Z,18.27
2019-02-06T20:05:29.489Z,17.33
2019-02-06T20:08:15.590Z,17.77
2019-02-06T20:11:01.485Z,17.23
2019-02-06T20:13:47.683Z,17.00
2019-02-06T20:16:33.592Z,17.33
2019-02-06T20:19:20.779Z,17.87
2019-02-06T20:22:07.416Z,16.93
2019-02-06T20:24:53.408Z,18.20
2019-02-06T20:27:39.499Z,18.60
2019-02-06T20:30:26.492Z,17.80
2019-02-06T20:33:12.395Z,17.67
2019-02-06T20:35:58.286Z,17.13
2019-02-06T20:38:44.200Z,17.10
2019-02-06T20:41:30.195Z,17.27
2019-02-06T20:44:16.349Z,17.63
2019-02-06T20:47:02.334Z,18.33
2019-02-06T20:49:48.639Z,16.47
2019-02-06T20:52:34.533Z,17.53
2019-02-06T20:55:20.640Z,18.83
2019-02-06T20:58:06.569Z,18.47
2019-02-06T21:00:52.539Z,17.37
2019-02-06T21:03:38.438Z,17.20
2019-02-06T21:06:24.323Z,19.23
2019-02-06T21:09:10.538Z,17.53
2019-02-06T21:11:56.446Z,17.83
2019-02-06T21:14:42.351Z,19.40
2019-02-06T21:17:28.545Z,20.00
2019-02-06T21:20:36.454Z,19.20
2019-02-06T21:23:15.611Z,17.77
2019-02-06T21:26:01.532Z,19.47
2019-02-06T21:28:47.655Z,19.53
2019-02-06T21:31:33.556Z,19.53
2019-02-06T21:34:19.443Z,19.33
2019-02-06T21:37:05.638Z,19.83
2019-02-06T21:39:51.785Z,17.30
2019-02-06T21:42:37.691Z,18.23
2019-02-06T21:45:23.910Z,17.10
2019-02-06T21:48:09.802Z,18.70
2019-02-06T21:50:56.447Z,18.50
2019-02-06T21:53:42.341Z,16.37
2019-02-06T21:56:28.252Z,19.27
2019-02-06T21:59:14.147Z,18.37
2019-02-06T22:02:00.053Z,18.53
2019-02-06T22:04:45.934Z,18.33
2019-02-06T22:07:31.839Z,18.50
2019-02-06T22:10:39.503Z,17.53
2019-02-06T22:13:25.399Z,17.57
2019-02-06T22:16:11.697Z,17.03
2019-02-06T22:18:57.692Z,18.67
2019-02-06T22:21:43.592Z,19.60
2019-02-06T22:24:23.584Z,18.07
2019-02-06T22:27:09.476Z,18.50
2019-02-06T22:29:56.055Z,18.73
2019-02-06T22:32:41.965Z,17.57
2019-02-06T22:35:27.948Z,17.13
2019-02-06T22:38:14.070Z,17.73
2019-02-06T22:40:59.963Z,17.40
2019-02-06T22:43:46.063Z,17.53
2019-02-06T22:46:31.953Z,17.03
2019-02-06T22:49:17.855Z,16.90
2019-02-06T22:52:03.863Z,17.63
2019-02-06T22:54:49.766Z,17.57
2019-02-06T22:57:35.883Z,17.70
2019-02-06T23:00:43.568Z,17.20
2019-02-06T23:03:49.370Z,18.27
2019-02-06T23:06:35.474Z,18.33
2019-02-06T23:09:21.366Z,17.67
2019-02-06T23:12:07.585Z,17.00
2019-02-06T23:14:53.491Z,17.33
2019-02-06T23:17:39.380Z,17.83
2019-02-06T23:20:25.702Z,18.70
2019-02-06T23:23:11.595Z,17.90
2019-02-06T23:25:51.572Z,19.37
2019-02-06T23:28:38.333Z,19.30
2019-02-06T23:31:18.279Z,17.87
2019-02-06T23:34:04.277Z,17.47
2019-02-06T23:36:50.185Z,17.23
2019-02-06T23:39:36.065Z,18.73
2019-02-06T23:42:22.199Z,17.50
2019-02-06T23:45:08.495Z,18.30
2019-02-06T23:47:54.624Z,18.07
2019-02-06T23:50:40.521Z,18.80
2019-02-06T23:53:26.412Z,16.93
2019-02-06T23:56:12.290Z,17.47
2019-02-06T23:58:58.684Z,17.97
